Time;durP1;ratioP1;P1;durP2;ratioP2;P2;SDS_P1;SDS_P2;PMS_P1;PMS_P2;Temp;Humidity;BMP_temperature;BMP_pressure;BME280_temperature;BME280_humidity;BME280_pressure;Samples;Min_cycle;Max_cycle;Signal;HPM_P1;HPM_P2
2023/04/13 00:04:01;;;;;;;64.67;31.03;;;;;;;;;;10517839;28;20051;-77
2023/04/13 00:09:02;;;;;;;59.73;29.90;;;;;;;;;;10532019;28;20039;-77
2023/04/13 00:14:05;;;;;;;59.80;30.33;;;;;;;;;;10530701;28;20034;-77
2023/04/13 00:19:06;;;;;;;62.67;29.50;;;;;;;;;;10529258;28;20028;-77
2023/04/13 00:24:07;;;;;;;60.67;30.43;;;;;;;;;;10529516;28;20110;-77
2023/04/13 00:29:09;;;;;;;63.73;29.80;;;;;;;;;;10531546;28;20097;-79
2023/04/13 00:34:13;;;;;;;62.43;31.30;;;;;;;;;;10530958;28;20031;-77
2023/04/13 00:39:14;;;;;;;61.43;30.53;;;;;;;;;;10530500;28;20386;-79
2023/04/13 00:44:18;;;;;;;62.07;31.00;;;;;;;;;;10531027;28;20028;-77
2023/04/13 00:49:20;;;;;;;60.37;29.63;;;;;;;;;;10528576;28;20034;-78
2023/04/13 00:54:21;;;;;;;69.83;32.33;;;;;;;;;;10531168;28;20719;-80
2023/04/13 00:59:24;;;;;;;67.47;34.43;;;;;;;;;;10529687;28;20042;-79
2023/04/13 01:04:26;;;;;;;60.93;28.47;;;;;;;;;;10528654;28;20060;-77
2023/04/13 01:09:41;;;;;;;65.00;32.10;;;;;;;;;;10530059;28;20030;-77
2023/04/13 01:15:02;;;;;;;47.27;22.43;;;;;;;;;;10530023;28;20055;-79
2023/04/13 01:20:11;;;;;;;62.37;29.47;;;;;;;;;;10511031;28;20263;-77
2023/04/13 01:25:16;;;;;;;60.83;30.17;;;;;;;;;;10530149;28;20038;-77
2023/04/13 01:30:21;;;;;;;70.03;32.37;;;;;;;;;;10515889;28;20020;-80
2023/04/13 01:35:22;;;;;;;68.60;31.57;;;;;;;;;;10527375;28;20181;-77
2023/04/13 01:40:27;;;;;;;62.17;28.83;;;;;;;;;;10510380;28;20039;-77
2023/04/13 01:45:29;;;;;;;55.75;29.92;;;;;;;;;;10527935;28;20550;-80
2023/04/13 01:50:35;;;;;;;63.13;31.10;;;;;;;;;;10528676;28;20063;-78
2023/04/13 01:55:40;;;;;;;52.28;26.30;;;;;;;;;;10527959;28;20028;-78
2023/04/13 02:00:41;;;;;;;73.03;34.95;;;;;;;;;;10527501;28;20048;-79
2023/04/13 02:05:42;;;;;;;56.13;28.23;;;;;;;;;;10499660;28;20515;-79
2023/04/13 02:10:45;;;;;;;54.87;27.10;;;;;;;;;;10486049;28;20043;-77
2023/04/13 02:15:46;;;;;;;51.17;27.13;;;;;;;;;;10492479;28;20024;-77
2023/04/13 02:20:47;;;;;;;56.10;29.07;;;;;;;;;;10484852;28;20032;-77
2023/04/13 02:25:50;;;;;;;50.13;24.20;;;;;;;;;;10496366;28;20055;-80
2023/04/13 02:30:51;;;;;;;48.03;25.37;;;;;;;;;;10497888;28;20106;-77
2023/04/13 02:35:53;;;;;;;43.73;22.13;;;;;;;;;;10492544;28;20137;-77
2023/04/13 02:40:58;;;;;;;40.90;21.80;;;;;;;;;;10485582;28;20049;-77
2023/04/13 02:46:01;;;;;;;48.17;23.40;;;;;;;;;;10489421;28;20043;-79
2023/04/13 02:51:02;;;;;;;38.40;20.50;;;;;;;;;;10484833;28;20041;-77
2023/04/13 02:56:21;;;;;;;35.67;19.53;;;;;;;;;;10495035;28;20032;-80
2023/04/13 03:01:23;;;;;;;41.83;21.20;;;;;;;;;;10496818;28;20395;-77
2023/04/13 03:06:24;;;;;;;38.67;20.10;;;;;;;;;;10526005;28;20158;-77
2023/04/13 03:11:25;;;;;;;38.53;19.97;;;;;;;;;;10526752;28;20035;-78
2023/04/13 03:16:27;;;;;;;42.10;21.03;;;;;;;;;;10525397;28;20036;-80
2023/04/13 03:21:28;;;;;;;37.00;19.13;;;;;;;;;;10525460;28;20039;-79
2023/04/13 03:26:28;;;;;;;39.33;21.57;;;;;;;;;;10532038;28;20032;-81
2023/04/13 03:31:30;;;;;;;37.63;19.57;;;;;;;;;;10533447;28;20024;-79
2023/04/13 03:36:33;;;;;;;38.07;20.60;;;;;;;;;;10533666;28;20034;-79
2023/04/13 03:41:34;;;;;;;35.57;19.63;;;;;;;;;;10533895;28;20437;-80
2023/04/13 03:46:38;;;;;;;41.27;19.40;;;;;;;;;;10532512;28;20117;-78
2023/04/13 03:51:39;;;;;;;31.43;17.83;;;;;;;;;;10532965;28;20042;-78
2023/04/13 03:56:40;;;;;;;34.40;18.23;;;;;;;;;;10531705;28;20054;-77
2023/04/13 04:01:41;;;;;;;48.53;21.87;;;;;;;;;;10532185;28;20127;-78
2023/04/13 04:06:42;;;;;;;35.90;18.93;;;;;;;;;;10527730;28;20036;-77
2023/04/13 04:11:43;;;;;;;43.17;21.27;;;;;;;;;;10531583;28;20028;-78
2023/04/13 04:16:44;;;;;;;50.13;22.13;;;;;;;;;;10513083;28;20459;-79
2023/04/13 04:21:45;;;;;;;42.00;22.43;;;;;;;;;;10531068;28;20097;-81
2023/04/13 04:26:53;;;;;;;51.27;27.47;;;;;;;;;;10527333;28;20035;-77
2023/04/13 04:31:56;;;;;;;45.30;25.13;;;;;;;;;;10531432;28;20031;-78
2023/04/13 04:37:04;;;;;;;79.47;45.23;;;;;;;;;;10530694;28;20711;-79
2023/04/13 04:42:09;;;;;;;66.03;35.83;;;;;;;;;;10531784;28;20063;-77
2023/04/13 04:47:18;;;;;;;49.80;28.53;;;;;;;;;;10532016;28;20028;-79
2023/04/13 04:52:21;;;;;;;40.53;24.57;;;;;;;;;;10531748;28;20028;-80
2023/04/13 04:57:22;;;;;;;43.07;21.17;;;;;;;;;;10531229;28;20031;-79
2023/04/13 05:02:23;;;;;;;37.13;19.30;;;;;;;;;;10531256;28;20512;-78
2023/04/13 05:07:26;;;;;;;36.20;18.67;;;;;;;;;;10530443;28;20036;-80
2023/04/13 05:12:27;;;;;;;33.70;16.57;;;;;;;;;;10531111;28;20240;-77
2023/04/13 05:17:28;;;;;;;30.30;17.30;;;;;;;;;;10530528;28;20111;-77
2023/04/13 05:22:32;;;;;;;27.90;14.93;;;;;;;;;;10528760;28;20028;-77
2023/04/13 05:27:33;;;;;;;26.93;14.40;;;;;;;;;;10530226;28;20386;-77
2023/04/13 05:32:34;;;;;;;28.30;13.83;;;;;;;;;;10529815;28;20039;-77
2023/04/13 05:37:38;;;;;;;30.40;15.73;;;;;;;;;;10530180;28;20126;-78
2023/04/13 05:42:41;;;;;;;37.90;18.30;;;;;;;;;;10528804;28;20040;-79
2023/04/13 05:47:44;;;;;;;37.00;18.80;;;;;;;;;;10528663;28;20097;-77
2023/04/13 05:52:46;;;;;;;32.50;18.10;;;;;;;;;;10529155;28;20028;-77
2023/04/13 05:57:46;;;;;;;36.00;19.60;;;;;;;;;;10527799;28;20132;-78
2023/04/13 06:02:48;;;;;;;34.83;18.53;;;;;;;;;;10528013;28;20056;-77
2023/04/13 06:07:49;;;;;;;34.47;18.60;;;;;;;;;;10527819;28;20816;-79
2023/04/13 06:12:51;;;;;;;33.33;18.43;;;;;;;;;;10527893;28;20544;-77
2023/04/13 06:17:53;;;;;;;37.80;20.43;;;;;;;;;;10528332;28;20112;-80
2023/04/13 06:22:54;;;;;;;37.28;23.08;;;;;;;;;;10527932;28;20085;-77
2023/04/13 06:27:55;;;;;;;38.67;22.00;;;;;;;;;;10527495;28;20136;-78
2023/04/13 06:32:56;;;;;;;39.92;22.42;;;;;;;;;;10541020;28;20467;-78
2023/04/13 06:37:58;;;;;;;51.22;27.42;;;;;;;;;;10528059;28;20032;-77
2023/04/13 06:42:59;;;;;;;57.20;24.75;;;;;;;;;;10527452;28;20032;-78
2023/04/13 06:48:00;;;;;;;50.47;22.42;;;;;;;;;;10541270;28;20023;-80
2023/04/13 06:53:02;;;;;;;42.03;20.73;;;;;;;;;;10527271;28;20033;-80
2023/04/13 06:58:03;;;;;;;49.15;22.13;;;;;;;;;;10527022;28;20015;-80
2023/04/13 07:03:08;;;;;;;51.58;26.33;;;;;;;;;;10536050;28;20482;-77
2023/04/13 07:08:09;;;;;;;41.80;21.17;;;;;;;;;;10536293;28;20035;-77
2023/04/13 07:13:11;;;;;;;40.58;20.05;;;;;;;;;;10535618;28;20510;-77
2023/04/13 07:18:11;;;;;;;41.65;19.33;;;;;;;;;;10535474;28;20501;-77
2023/04/13 07:23:15;;;;;;;29.50;15.95;;;;;;;;;;10534502;28;20119;-77
2023/04/13 07:28:16;;;;;;;36.53;17.15;;;;;;;;;;10535020;28;20104;-78
2023/04/13 07:33:21;;;;;;;24.63;15.00;;;;;;;;;;10536393;28;20464;-77
2023/04/13 07:38:22;;;;;;;27.02;13.82;;;;;;;;;;10535181;28;20115;-79
2023/04/13 07:43:26;;;;;;;20.02;11.88;;;;;;;;;;10534770;28;20043;-80
2023/04/13 07:48:29;;;;;;;24.63;12.75;;;;;;;;;;10534471;28;20040;-78
2023/04/13 07:53:30;;;;;;;17.83;9.63;;;;;;;;;;10532417;28;20032;-77
2023/04/13 07:58:34;;;;;;;28.85;12.98;;;;;;;;;;10538057;28;20467;-78
2023/04/13 08:03:36;;;;;;;154.32;74.78;;;;;;;;;;10532464;28;20052;-78
2023/04/13 08:08:37;;;;;;;69.03;53.10;;;;;;;;;;10526778;28;20033;-77
2023/04/13 08:13:38;;;;;;;13.50;7.05;;;;;;;;;;10520556;28;20085;-77
2023/04/13 08:18:41;;;;;;;15.68;7.20;;;;;;;;;;10532229;28;20420;-78
2023/04/13 08:23:42;;;;;;;18.85;9.27;;;;;;;;;;10531922;28;20050;-79
2023/04/13 08:28:43;;;;;;;13.82;7.00;;;;;;;;;;10531789;28;20032;-77
2023/04/13 08:33:45;;;;;;;16.83;6.85;;;;;;;;;;10531625;28;20032;-77
2023/04/13 08:38:46;;;;;;;13.23;6.60;;;;;;;;;;10530598;28;20024;-76
2023/04/13 08:43:49;;;;;;;15.57;7.60;;;;;;;;;;10530537;28;20498;-78
2023/04/13 08:48:51;;;;;;;14.50;7.78;;;;;;;;;;10531359;28;20376;-77
2023/04/13 08:53:52;;;;;;;15.95;8.30;;;;;;;;;;10531054;28;20028;-77
2023/04/13 08:58:56;;;;;;;12.75;7.38;;;;;;;;;;10527923;28;20036;-77
2023/04/13 09:04:02;;;;;;;17.45;7.25;;;;;;;;;;10531130;28;20051;-77
2023/04/13 09:09:04;;;;;;;13.40;7.95;;;;;;;;;;10530409;28;20074;-78
2023/04/13 09:14:05;;;;;;;14.25;8.07;;;;;;;;;;10529088;28;20020;-78
2023/04/13 09:19:07;;;;;;;12.07;6.57;;;;;;;;;;10528865;28;20406;-77
2023/04/13 09:24:08;;;;;;;9.15;6.53;;;;;;;;;;10523132;28;20081;-78
2023/04/13 09:29:11;;;;;;;10.40;6.57;;;;;;;;;;10519963;28;20027;-78
2023/04/13 09:34:13;;;;;;;14.32;7.80;;;;;;;;;;10526893;28;20028;-78
2023/04/13 09:39:14;;;;;;;25.88;13.00;;;;;;;;;;10528999;28;20510;-78
2023/04/13 09:44:17;;;;;;;22.83;13.13;;;;;;;;;;10529497;28;20185;-78
2023/04/13 09:49:18;;;;;;;16.13;8.50;;;;;;;;;;10528612;28;20570;-77
2023/04/13 09:54:22;;;;;;;17.45;8.63;;;;;;;;;;10528838;28;20024;-76
2023/04/13 09:59:24;;;;;;;11.88;6.22;;;;;;;;;;10527866;28;20071;-79
2023/04/13 10:04:25;;;;;;;9.88;5.97;;;;;;;;;;10527674;28;20047;-79
2023/04/13 10:09:26;;;;;;;10.32;5.78;;;;;;;;;;10526907;28;20042;-78
2023/04/13 10:14:31;;;;;;;13.07;7.30;;;;;;;;;;10527318;28;20036;-77
2023/04/13 10:19:34;;;;;;;12.20;7.22;;;;;;;;;;10526791;28;20447;-79
2023/04/13 10:24:35;;;;;;;10.93;7.65;;;;;;;;;;10525767;28;20047;-79
2023/04/13 10:29:36;;;;;;;27.80;8.93;;;;;;;;;;10527640;28;20020;-79
2023/04/13 10:34:38;;;;;;;14.45;7.47;;;;;;;;;;10526005;28;20030;-80
2023/04/13 10:39:39;;;;;;;16.77;11.70;;;;;;;;;;10526796;28;20068;-79
2023/04/13 10:44:48;;;;;;;13.30;7.55;;;;;;;;;;10526449;28;20465;-80
2023/04/13 10:49:51;;;;;;;9.77;5.82;;;;;;;;;;10527277;28;20445;-79
2023/04/13 10:54:52;;;;;;;11.40;6.50;;;;;;;;;;10524590;28;20040;-80
2023/04/13 10:59:55;;;;;;;9.82;5.63;;;;;;;;;;10526571;28;20032;-78
2023/04/13 11:04:56;;;;;;;7.97;5.38;;;;;;;;;;10526899;28;20384;-79
2023/04/13 11:09:59;;;;;;;10.80;5.72;;;;;;;;;;10527128;28;20463;-80
2023/04/13 11:15:00;;;;;;;9.23;5.30;;;;;;;;;;10526813;28;20032;-80
2023/04/13 11:20:06;;;;;;;6.93;4.60;;;;;;;;;;10531909;28;20054;-79
2023/04/13 11:25:08;;;;;;;8.60;5.10;;;;;;;;;;10521211;28;20028;-79
2023/04/13 11:30:10;;;;;;;9.70;5.05;;;;;;;;;;10526052;28;20036;-79
2023/04/13 11:35:14;;;;;;;10.10;5.35;;;;;;;;;;10525617;28;20118;-79
2023/04/13 11:40:16;;;;;;;8.32;4.18;;;;;;;;;;10507429;28;20073;-79
2023/04/13 11:45:20;;;;;;;7.82;4.97;;;;;;;;;;10541367;28;20111;-78
2023/04/13 11:50:22;;;;;;;5.93;3.40;;;;;;;;;;10523407;28;20645;-79
2023/04/13 11:55:28;;;;;;;7.88;4.43;;;;;;;;;;10531517;28;20082;-79
2023/04/13 12:00:29;;;;;;;7.35;3.97;;;;;;;;;;10531938;28;20051;-78
2023/04/13 12:05:33;;;;;;;7.88;4.82;;;;;;;;;;10533137;28;20055;-81
2023/04/13 12:10:35;;;;;;;8.38;4.55;;;;;;;;;;10532747;28;20059;-78
2023/04/13 12:15:38;;;;;;;7.63;4.88;;;;;;;;;;10531378;28;20495;-79
2023/04/13 12:20:42;;;;;;;10.07;5.85;;;;;;;;;;10533115;28;20038;-80
2023/04/13 12:26:04;;;;;;;9.05;4.88;;;;;;;;;;10543649;28;20478;-78
2023/04/13 12:31:08;;;;;;;7.43;4.78;;;;;;;;;;10525636;28;20027;-79
2023/04/13 12:36:10;;;;;;;7.65;4.32;;;;;;;;;;10530440;28;20024;-81
2023/04/13 12:41:11;;;;;;;12.15;5.72;;;;;;;;;;10529701;28;20032;-80
2023/04/13 12:46:12;;;;;;;8.02;4.97;;;;;;;;;;10530393;28;20173;-79
2023/04/13 12:51:13;;;;;;;7.45;4.72;;;;;;;;;;10531007;28;20501;-80
2023/04/13 12:56:15;;;;;;;23.55;13.13;;;;;;;;;;10529331;28;20653;-79
2023/04/13 13:01:16;;;;;;;30.17;17.55;;;;;;;;;;10527547;28;20386;-80
2023/04/13 13:06:17;;;;;;;9.52;5.40;;;;;;;;;;10530171;28;20032;-78
2023/04/13 13:11:18;;;;;;;11.80;7.07;;;;;;;;;;10528642;28;20376;-79
2023/04/13 13:16:19;;;;;;;12.70;7.72;;;;;;;;;;10530129;28;20099;-80
2023/04/13 13:21:22;;;;;;;15.15;8.07;;;;;;;;;;10522387;28;20148;-79
2023/04/13 13:26:22;;;;;;;12.63;6.90;;;;;;;;;;10528716;28;20050;-79
2023/04/13 13:31:24;;;;;;;12.52;6.72;;;;;;;;;;10527638;28;20043;-79
2023/04/13 13:36:26;;;;;;;10.25;5.47;;;;;;;;;;10529675;28;20020;-79
2023/04/13 13:41:27;;;;;;;12.85;6.95;;;;;;;;;;10528134;28;20043;-79
2023/04/13 13:46:28;;;;;;;13.63;6.43;;;;;;;;;;10527395;28;20040;-79
2023/04/13 13:51:33;;;;;;;15.52;7.45;;;;;;;;;;10528166;28;20468;-80
2023/04/13 13:56:36;;;;;;;14.90;7.50;;;;;;;;;;10523134;28;20055;-80
2023/04/13 14:01:37;;;;;;;20.38;12.82;;;;;;;;;;10526611;28;20131;-79
2023/04/13 14:06:39;;;;;;;19.42;12.27;;;;;;;;;;10526709;28;20157;-78
2023/04/13 14:11:40;;;;;;;22.13;13.05;;;;;;;;;;10512392;28;20036;-79
2023/04/13 14:16:41;;;;;;;24.02;12.70;;;;;;;;;;10525872;28;20035;-79
2023/04/13 14:21:42;;;;;;;21.50;13.35;;;;;;;;;;10525650;28;20390;-79
2023/04/13 14:26:43;;;;;;;22.38;13.20;;;;;;;;;;10525952;28;20031;-79
2023/04/13 14:31:44;;;;;;;22.67;14.20;;;;;;;;;;10524966;28;20043;-80
2023/04/13 14:36:45;;;;;;;27.48;15.48;;;;;;;;;;10526333;28;20069;-81
2023/04/13 14:41:46;;;;;;;26.30;17.00;;;;;;;;;;10526451;28;20079;-81
2023/04/13 14:46:50;;;;;;;20.52;12.80;;;;;;;;;;10525860;28;20115;-78
2023/04/13 14:51:51;;;;;;;27.98;15.98;;;;;;;;;;10526261;28;20036;-80
2023/04/13 14:56:52;;;;;;;21.13;14.40;;;;;;;;;;10507352;28;20459;-79
2023/04/13 15:01:54;;;;;;;26.92;16.02;;;;;;;;;;10523666;28;20514;-80
2023/04/13 15:06:55;;;;;;;23.08;15.15;;;;;;;;;;10525319;28;20107;-79
2023/04/13 15:11:56;;;;;;;28.00;16.23;;;;;;;;;;10524762;28;20114;-79
2023/04/13 15:16:58;;;;;;;24.58;14.10;;;;;;;;;;10525272;28;20047;-78
2023/04/13 15:21:58;;;;;;;30.65;17.83;;;;;;;;;;10529957;28;20047;-79
2023/04/13 15:26:59;;;;;;;33.40;18.98;;;;;;;;;;10533840;28;20028;-79
2023/04/13 15:32:00;;;;;;;33.50;18.23;;;;;;;;;;10532263;28;20028;-81
2023/04/13 15:37:01;;;;;;;29.70;17.60;;;;;;;;;;10532931;28;20054;-81
2023/04/13 15:42:02;;;;;;;32.42;20.42;;;;;;;;;;10531015;28;20047;-79
2023/04/13 15:47:03;;;;;;;31.70;20.05;;;;;;;;;;10533388;28;20032;-79
2023/04/13 15:52:04;;;;;;;45.92;26.10;;;;;;;;;;10532629;28;20036;-80
2023/04/13 15:57:05;;;;;;;45.25;29.17;;;;;;;;;;10531718;28;20024;-80
2023/04/13 16:02:06;;;;;;;50.45;34.30;;;;;;;;;;10531908;28;20056;-79
2023/04/13 16:07:10;;;;;;;45.70;29.48;;;;;;;;;;10531932;28;20503;-78
2023/04/13 16:12:11;;;;;;;44.00;25.88;;;;;;;;;;10517734;28;20470;-78
2023/04/13 16:17:15;;;;;;;51.88;28.92;;;;;;;;;;10531270;28;20024;-78
2023/04/13 16:22:16;;;;;;;39.45;22.50;;;;;;;;;;10530389;28;20059;-77
2023/04/13 16:27:18;;;;;;;38.55;23.15;;;;;;;;;;10527156;28;20041;-78
2023/04/13 16:32:19;;;;;;;42.80;25.42;;;;;;;;;;10529528;28;20471;-78
2023/04/13 16:37:20;;;;;;;42.10;25.17;;;;;;;;;;10530791;28;20028;-77
2023/04/13 16:42:21;;;;;;;54.45;33.30;;;;;;;;;;10530738;28;20805;-78
2023/04/13 16:47:22;;;;;;;76.05;43.42;;;;;;;;;;10529314;28;20028;-77
2023/04/13 16:52:23;;;;;;;102.45;57.88;;;;;;;;;;10543634;28;20028;-79
2023/04/13 16:57:24;;;;;;;65.43;38.78;;;;;;;;;;10530815;28;20386;-77
2023/04/13 17:02:27;;;;;;;84.97;50.03;;;;;;;;;;10527770;28;20055;-79
2023/04/13 17:07:28;;;;;;;91.57;52.90;;;;;;;;;;10529551;28;20025;-77
2023/04/13 17:12:30;;;;;;;58.93;33.77;;;;;;;;;;10529816;28;20111;-79
2023/04/13 17:17:31;;;;;;;43.70;28.05;;;;;;;;;;10529239;28;20055;-79
2023/04/13 17:22:32;;;;;;;54.90;33.83;;;;;;;;;;10529787;28;20190;-79
2023/04/13 17:27:33;;;;;;;50.42;31.83;;;;;;;;;;10529539;28;20505;-79
2023/04/13 17:32:36;;;;;;;54.57;34.20;;;;;;;;;;10528980;28;20164;-81
2023/04/13 17:37:37;;;;;;;54.03;33.13;;;;;;;;;;10529253;28;20623;-79
2023/04/13 17:42:38;;;;;;;61.90;37.30;;;;;;;;;;10528396;28;20028;-80
2023/04/13 17:47:39;;;;;;;61.63;32.47;;;;;;;;;;10524268;28;20110;-79
2023/04/13 17:52:40;;;;;;;80.30;37.22;;;;;;;;;;10516997;28;20036;-80
2023/04/13 17:57:41;;;;;;;82.07;39.37;;;;;;;;;;10523000;28;20092;-79
2023/04/13 18:02:42;;;;;;;90.57;41.43;;;;;;;;;;10511638;28;20104;-79
2023/04/13 18:07:43;;;;;;;77.90;36.23;;;;;;;;;;10492215;28;20029;-81
2023/04/13 18:12:45;;;;;;;75.30;34.83;;;;;;;;;;10485751;28;20388;-78
2023/04/13 18:17:45;;;;;;;80.37;34.53;;;;;;;;;;10486438;28;20036;-80
2023/04/13 18:22:46;;;;;;;85.77;36.90;;;;;;;;;;10497192;28;20037;-79
2023/04/13 18:27:47;;;;;;;99.47;44.03;;;;;;;;;;10494529;28;20028;-80
2023/04/13 18:32:50;;;;;;;87.80;38.83;;;;;;;;;;10488440;28;20029;-78
2023/04/13 18:37:51;;;;;;;102.23;43.63;;;;;;;;;;10480874;28;20028;-80
2023/04/13 18:42:52;;;;;;;138.60;60.10;;;;;;;;;;10483554;28;20387;-79
2023/04/13 18:47:53;;;;;;;115.53;46.73;;;;;;;;;;10500593;28;20039;-78
2023/04/13 18:52:54;;;;;;;103.30;43.77;;;;;;;;;;10490830;28;20059;-80
2023/04/13 18:57:56;;;;;;;103.27;43.70;;;;;;;;;;10483375;28;20048;-79
2023/04/13 19:02:57;;;;;;;86.77;35.47;;;;;;;;;;10498642;28;20050;-79
2023/04/13 19:07:58;;;;;;;75.20;30.40;;;;;;;;;;10525313;28;20020;-79
2023/04/13 19:12:59;;;;;;;80.33;32.20;;;;;;;;;;10525342;28;20027;-78
2023/04/13 19:18:01;;;;;;;81.30;33.40;;;;;;;;;;10526005;28;20035;-80
2023/04/13 19:23:02;;;;;;;74.17;30.57;;;;;;;;;;10525016;28;20035;-80
2023/04/13 19:28:03;;;;;;;81.00;32.07;;;;;;;;;;10526107;28;20023;-79
2023/04/13 19:33:04;;;;;;;73.87;32.77;;;;;;;;;;10520134;28;20036;-80
2023/04/13 19:38:05;;;;;;;63.70;30.23;;;;;;;;;;10524998;28;20020;-80
2023/04/13 19:43:06;;;;;;;69.73;31.10;;;;;;;;;;10525984;28;20039;-79
2023/04/13 19:48:07;;;;;;;69.10;32.10;;;;;;;;;;10525225;28;20578;-80
2023/04/13 19:53:08;;;;;;;75.03;31.23;;;;;;;;;;10525542;28;20691;-80
2023/04/13 19:58:09;;;;;;;74.33;31.97;;;;;;;;;;10506900;28;20031;-81
2023/04/13 20:03:10;;;;;;;67.47;29.90;;;;;;;;;;10524533;28;20130;-80
2023/04/13 20:08:11;;;;;;;67.97;28.57;;;;;;;;;;10529659;28;20532;-79
2023/04/13 20:13:12;;;;;;;72.20;30.10;;;;;;;;;;10532842;28;20040;-79
2023/04/13 20:18:13;;;;;;;76.97;31.30;;;;;;;;;;10531423;28;20022;-80
2023/04/13 20:23:14;;;;;;;66.97;29.10;;;;;;;;;;10531630;28;20031;-79
2023/04/13 20:28:16;;;;;;;74.97;30.57;;;;;;;;;;10532260;28;20031;-80
2023/04/13 20:33:17;;;;;;;86.83;33.67;;;;;;;;;;10530627;28;20048;-80
2023/04/13 20:38:18;;;;;;;63.87;25.63;;;;;;;;;;10528939;28;20099;-81
2023/04/13 20:43:19;;;;;;;75.33;26.60;;;;;;;;;;10530661;28;20032;-81
2023/04/13 20:48:24;;;;;;;54.00;23.70;;;;;;;;;;10530727;28;20101;-79
2023/04/13 20:53:25;;;;;;;69.83;26.73;;;;;;;;;;10530828;28;20491;-82
2023/04/13 20:58:27;;;;;;;73.47;27.47;;;;;;;;;;10530558;28;20124;-80
2023/04/13 21:03:32;;;;;;;67.40;25.37;;;;;;;;;;10510844;28;20048;-81
2023/04/13 21:08:33;;;;;;;79.00;27.03;;;;;;;;;;10488516;28;20529;-81
2023/04/13 21:13:34;;;;;;;58.90;22.97;;;;;;;;;;10485970;28;20032;-81
2023/04/13 21:18:35;;;;;;;56.83;20.83;;;;;;;;;;10485602;28;20017;-80
2023/04/13 21:23:36;;;;;;;48.53;19.53;;;;;;;;;;10470751;28;20048;-79
2023/04/13 21:28:37;;;;;;;51.50;18.70;;;;;;;;;;10486624;28;20357;-82
2023/04/13 21:33:38;;;;;;;56.97;20.60;;;;;;;;;;10486191;28;20032;-81
2023/04/13 21:38:40;;;;;;;87.70;35.80;;;;;;;;;;10485906;28;20038;-79
2023/04/13 21:43:41;;;;;;;54.77;20.27;;;;;;;;;;10468222;28;20032;-80
2023/04/13 21:48:42;;;;;;;39.80;17.27;;;;;;;;;;10485307;28;20028;-79
2023/04/13 21:53:43;;;;;;;68.63;24.03;;;;;;;;;;10482539;28;20025;-80
2023/04/13 21:58:45;;;;;;;54.73;19.40;;;;;;;;;;10486769;28;20035;-80
2023/04/13 22:03:46;;;;;;;59.83;23.63;;;;;;;;;;10494530;28;20623;-79
2023/04/13 22:08:47;;;;;;;58.13;23.23;;;;;;;;;;10527210;28;20105;-80
2023/04/13 22:13:48;;;;;;;65.77;23.93;;;;;;;;;;10527797;28;20028;-79
2023/04/13 22:18:49;;;;;;;63.10;24.27;;;;;;;;;;10526928;28;20451;-80
2023/04/13 22:23:50;;;;;;;77.80;28.83;;;;;;;;;;10527453;28;20048;-80
2023/04/13 22:28:51;;;;;;;90.00;33.63;;;;;;;;;;10526530;28;20039;-80
2023/04/13 22:33:52;;;;;;;75.07;28.23;;;;;;;;;;10527127;28;20058;-79
2023/04/13 22:38:53;;;;;;;108.10;39.97;;;;;;;;;;10527249;28;20418;-80
2023/04/13 22:43:54;;;;;;;99.87;38.13;;;;;;;;;;10526093;28;20097;-80
2023/04/13 22:48:55;;;;;;;111.97;42.27;;;;;;;;;;10527017;28;20548;-80
2023/04/13 22:53:56;;;;;;;131.70;45.57;;;;;;;;;;10526138;28;20043;-81
2023/04/13 22:58:58;;;;;;;138.17;46.80;;;;;;;;;;10527512;28;20031;-80
2023/04/13 23:03:59;;;;;;;139.97;47.40;;;;;;;;;;10525523;28;20050;-80
2023/04/13 23:09:00;;;;;;;150.43;43.57;;;;;;;;;;10527394;28;20042;-80
2023/04/13 23:14:01;;;;;;;164.87;56.90;;;;;;;;;;10526416;28;20071;-79
2023/04/13 23:19:02;;;;;;;138.37;40.30;;;;;;;;;;10525600;28;20123;-79
2023/04/13 23:24:03;;;;;;;174.87;48.40;;;;;;;;;;10526254;28;20036;-80
2023/04/13 23:29:04;;;;;;;163.97;46.73;;;;;;;;;;10526364;28;20024;-80
2023/04/13 23:34:05;;;;;;;175.10;50.60;;;;;;;;;;10525555;28;20023;-81
2023/04/13 23:39:06;;;;;;;145.40;43.97;;;;;;;;;;10525874;28;20016;-80
2023/04/13 23:44:07;;;;;;;151.03;50.53;;;;;;;;;;10531830;28;20379;-79
2023/04/13 23:49:08;;;;;;;189.40;54.87;;;;;;;;;;10533795;28;20459;-80
2023/04/13 23:54:09;;;;;;;154.13;45.77;;;;;;;;;;10532455;28;20031;-79
2023/04/13 23:59:10;;;;;;;169.13;49.53;;;;;;;;;;10533030;28;20085;-79
